Balladonia, Australia
Current Conditions -  °F | °C
As of 1:00 PM on Tuesday 21 Oct 2014 (Local Time) from YESP Reporting Station
Overcast Overcast  
Wind Chill: 66°   Ceiling: 2100
Heat Index: 66°   Visibility: 6mi
Dew Point: 59°   Wind: 14mph
Humidity: 78%   Direction: 220°SW
Pressure: 30.18"   Gusts: NA
Location:  32.47°S, 123.83°E
Report Text: YESP 210500Z AUTO 22012KT 9999 // BKN021 OVC028 OVC033 19/15 Q1022
Loading
Personal Weather Stations






























Interactive Weather Map
Tropical Storm Tracking
New forecast layout! Learn more

10-Day Weather Forecast

Advertisements
Track Severe Weather on mobile